sensor_id;sensor_type;location;lat;lon;timestamp;pressure;altitude;pressure_sealevel;temperature;humidity
62632;BME280;48703;51.248;-0.546;2023-04-25T00:01:43;100867;;;5.39;88.93
62632;BME280;48703;51.248;-0.546;2023-04-25T00:04:45;100874;;;5.36;89.01
62632;BME280;48703;51.248;-0.546;2023-04-25T00:07:47;100878;;;5.35;89.16
62632;BME280;48703;51.248;-0.546;2023-04-25T00:10:50;100886;;;5.33;88.86
62632;BME280;48703;51.248;-0.546;2023-04-25T00:13:52;100891;;;5.34;89.01
62632;BME280;48703;51.248;-0.546;2023-04-25T00:16:54;100890;;;5.31;87.99
62632;BME280;48703;51.248;-0.546;2023-04-25T00:19:56;100884;;;5.28;88.68
62632;BME280;48703;51.248;-0.546;2023-04-25T00:22:58;100879;;;5.27;89.44
62632;BME280;48703;51.248;-0.546;2023-04-25T00:26:00;100874;;;5.26;90.02
62632;BME280;48703;51.248;-0.546;2023-04-25T00:29:02;100873;;;5.22;90.50
62632;BME280;48703;51.248;-0.546;2023-04-25T00:32:04;100876;;;5.16;89.36
62632;BME280;48703;51.248;-0.546;2023-04-25T00:35:06;100882;;;5.13;90.11
62632;BME280;48703;51.248;-0.546;2023-04-25T00:38:08;100885;;;5.06;89.35
62632;BME280;48703;51.248;-0.546;2023-04-25T00:41:10;100884;;;5.04;89.87
62632;BME280;48703;51.248;-0.546;2023-04-25T00:44:12;100890;;;5.01;89.98
62632;BME280;48703;51.248;-0.546;2023-04-25T00:47:14;100893;;;4.94;88.41
62632;BME280;48703;51.248;-0.546;2023-04-25T00:50:16;100896;;;4.90;89.55
62632;BME280;48703;51.248;-0.546;2023-04-25T00:53:18;100896;;;4.81;89.10
62632;BME280;48703;51.248;-0.546;2023-04-25T00:56:20;100900;;;4.77;88.67
62632;BME280;48703;51.248;-0.546;2023-04-25T00:59:22;100905;;;4.73;89.05
62632;BME280;48703;51.248;-0.546;2023-04-25T01:02:24;100907;;;4.67;89.41
62632;BME280;48703;51.248;-0.546;2023-04-25T01:05:26;100905;;;4.62;89.53
62632;BME280;48703;51.248;-0.546;2023-04-25T01:08:28;100904;;;4.57;89.56
62632;BME280;48703;51.248;-0.546;2023-04-25T01:11:30;100905;;;4.51;89.71
62632;BME280;48703;51.248;-0.546;2023-04-25T01:14:32;100908;;;4.44;89.89
62632;BME280;48703;51.248;-0.546;2023-04-25T01:17:34;100909;;;4.39;89.55
62632;BME280;48703;51.248;-0.546;2023-04-25T01:20:36;100915;;;4.35;89.59
62632;BME280;48703;51.248;-0.546;2023-04-25T01:23:38;100918;;;4.31;89.44
62632;BME280;48703;51.248;-0.546;2023-04-25T01:26:40;100918;;;4.26;89.02
62632;BME280;48703;51.248;-0.546;2023-04-25T01:29:42;100919;;;4.23;89.70
62632;BME280;48703;51.248;-0.546;2023-04-25T01:32:44;100922;;;4.20;89.49
62632;BME280;48703;51.248;-0.546;2023-04-25T01:35:46;100923;;;4.16;89.48
62632;BME280;48703;51.248;-0.546;2023-04-25T01:38:48;100926;;;4.10;89.38
62632;BME280;48703;51.248;-0.546;2023-04-25T01:41:50;100927;;;4.04;89.73
62632;BME280;48703;51.248;-0.546;2023-04-25T01:44:52;100925;;;3.95;89.85
62632;BME280;48703;51.248;-0.546;2023-04-25T01:47:54;100927;;;3.92;90.07
62632;BME280;48703;51.248;-0.546;2023-04-25T01:50:56;100929;;;3.87;89.79
62632;BME280;48703;51.248;-0.546;2023-04-25T01:53:58;100930;;;3.82;89.70
62632;BME280;48703;51.248;-0.546;2023-04-25T01:57:00;100936;;;3.79;89.76
62632;BME280;48703;51.248;-0.546;2023-04-25T02:00:03;100937;;;3.73;89.82
62632;BME280;48703;51.248;-0.546;2023-04-25T02:03:04;100939;;;3.69;90.20
62632;BME280;48703;51.248;-0.546;2023-04-25T02:06:06;100941;;;3.68;89.84
62632;BME280;48703;51.248;-0.546;2023-04-25T02:09:08;100947;;;3.64;89.53
62632;BME280;48703;51.248;-0.546;2023-04-25T02:12:10;100944;;;3.62;89.23
62632;BME280;48703;51.248;-0.546;2023-04-25T02:15:12;100940;;;3.59;89.90
62632;BME280;48703;51.248;-0.546;2023-04-25T02:18:14;100945;;;3.57;89.29
62632;BME280;48703;51.248;-0.546;2023-04-25T02:21:16;100952;;;3.51;90.16
62632;BME280;48703;51.248;-0.546;2023-04-25T02:24:18;100953;;;3.50;90.23
62632;BME280;48703;51.248;-0.546;2023-04-25T02:27:20;100955;;;3.46;90.45
62632;BME280;48703;51.248;-0.546;2023-04-25T02:30:22;100957;;;3.41;90.18
62632;BME280;48703;51.248;-0.546;2023-04-25T02:33:24;100957;;;3.37;89.58
62632;BME280;48703;51.248;-0.546;2023-04-25T02:36:27;100962;;;3.33;90.07
62632;BME280;48703;51.248;-0.546;2023-04-25T02:39:29;100966;;;3.30;90.55
62632;BME280;48703;51.248;-0.546;2023-04-25T02:42:31;100968;;;3.26;90.83
62632;BME280;48703;51.248;-0.546;2023-04-25T02:45:33;100962;;;3.23;90.58
62632;BME280;48703;51.248;-0.546;2023-04-25T02:48:35;100960;;;3.15;90.90
62632;BME280;48703;51.248;-0.546;2023-04-25T02:51:37;100960;;;3.11;90.61
62632;BME280;48703;51.248;-0.546;2023-04-25T02:54:39;100962;;;3.07;90.87
62632;BME280;48703;51.248;-0.546;2023-04-25T02:57:41;100968;;;3.02;90.53
62632;BME280;48703;51.248;-0.546;2023-04-25T03:00:43;100964;;;3.02;90.82
62632;BME280;48703;51.248;-0.546;2023-04-25T03:03:45;100963;;;2.99;90.66
62632;BME280;48703;51.248;-0.546;2023-04-25T03:06:47;100969;;;2.95;90.76
62632;BME280;48703;51.248;-0.546;2023-04-25T03:09:49;100970;;;2.91;90.94
62632;BME280;48703;51.248;-0.546;2023-04-25T03:12:51;100972;;;2.86;90.92
62632;BME280;48703;51.248;-0.546;2023-04-25T03:15:53;100970;;;2.85;91.01
62632;BME280;48703;51.248;-0.546;2023-04-25T03:18:55;100972;;;2.81;91.03
62632;BME280;48703;51.248;-0.546;2023-04-25T03:21:57;100977;;;2.76;90.92
62632;BME280;48703;51.248;-0.546;2023-04-25T03:24:59;100978;;;2.72;90.74
62632;BME280;48703;51.248;-0.546;2023-04-25T03:28:01;100978;;;2.68;90.98
62632;BME280;48703;51.248;-0.546;2023-04-25T03:31:03;100982;;;2.61;90.29
62632;BME280;48703;51.248;-0.546;2023-04-25T03:34:05;100984;;;2.53;90.68
62632;BME280;48703;51.248;-0.546;2023-04-25T03:37:07;100988;;;2.49;90.36
62632;BME280;48703;51.248;-0.546;2023-04-25T03:40:09;100992;;;2.49;91.04
62632;BME280;48703;51.248;-0.546;2023-04-25T03:43:11;100996;;;2.47;91.08
62632;BME280;48703;51.248;-0.546;2023-04-25T03:46:13;100999;;;2.43;91.20
62632;BME280;48703;51.248;-0.546;2023-04-25T03:49:16;101001;;;2.40;91.13
62632;BME280;48703;51.248;-0.546;2023-04-25T03:52:17;100998;;;2.37;91.40
62632;BME280;48703;51.248;-0.546;2023-04-25T03:55:19;100999;;;2.39;91.46
62632;BME280;48703;51.248;-0.546;2023-04-25T03:58:21;101005;;;2.39;91.31
62632;BME280;48703;51.248;-0.546;2023-04-25T04:01:23;101013;;;2.33;90.34
62632;BME280;48703;51.248;-0.546;2023-04-25T04:04:25;101019;;;2.26;91.09
62632;BME280;48703;51.248;-0.546;2023-04-25T04:07:27;101019;;;2.21;90.87
62632;BME280;48703;51.248;-0.546;2023-04-25T04:10:29;101018;;;2.19;91.21
62632;BME280;48703;51.248;-0.546;2023-04-25T04:13:31;101023;;;2.21;91.15
62632;BME280;48703;51.248;-0.546;2023-04-25T04:16:33;101029;;;2.15;90.57
62632;BME280;48703;51.248;-0.546;2023-04-25T04:19:35;101032;;;2.12;90.87
62632;BME280;48703;51.248;-0.546;2023-04-25T04:22:37;101049;;;2.09;91.01
62632;BME280;48703;51.248;-0.546;2023-04-25T04:25:39;101051;;;2.04;90.74
62632;BME280;48703;51.248;-0.546;2023-04-25T04:28:41;101057;;;1.99;90.51
62632;BME280;48703;51.248;-0.546;2023-04-25T04:31:43;101058;;;1.93;90.39
62632;BME280;48703;51.248;-0.546;2023-04-25T04:34:45;101062;;;1.88;91.09
62632;BME280;48703;51.248;-0.546;2023-04-25T04:37:47;101067;;;1.87;91.12
62632;BME280;48703;51.248;-0.546;2023-04-25T04:40:49;101069;;;1.79;90.86
62632;BME280;48703;51.248;-0.546;2023-04-25T04:43:51;101070;;;1.76;91.35
62632;BME280;48703;51.248;-0.546;2023-04-25T04:46:53;101073;;;1.76;91.28
62632;BME280;48703;51.248;-0.546;2023-04-25T04:49:55;101073;;;1.74;91.18
62632;BME280;48703;51.248;-0.546;2023-04-25T04:52:57;101072;;;1.71;91.13
62632;BME280;48703;51.248;-0.546;2023-04-25T04:55:59;101071;;;1.70;91.14
62632;BME280;48703;51.248;-0.546;2023-04-25T04:59:01;101077;;;1.69;91.19
62632;BME280;48703;51.248;-0.546;2023-04-25T05:02:04;101086;;;1.69;91.53
62632;BME280;48703;51.248;-0.546;2023-04-25T05:05:06;101090;;;1.65;91.25
62632;BME280;48703;51.248;-0.546;2023-04-25T05:08:08;101098;;;1.68;91.79
62632;BME280;48703;51.248;-0.546;2023-04-25T05:11:10;101106;;;1.69;91.27
62632;BME280;48703;51.248;-0.546;2023-04-25T05:14:12;101111;;;1.66;92.15
62632;BME280;48703;51.248;-0.546;2023-04-25T05:17:14;101118;;;1.65;91.88
62632;BME280;48703;51.248;-0.546;2023-04-25T05:20:16;101126;;;1.59;91.64
62632;BME280;48703;51.248;-0.546;2023-04-25T05:23:18;101136;;;1.58;91.41
62632;BME280;48703;51.248;-0.546;2023-04-25T05:26:20;101139;;;1.57;91.68
62632;BME280;48703;51.248;-0.546;2023-04-25T05:29:22;101141;;;1.58;91.80
62632;BME280;48703;51.248;-0.546;2023-04-25T05:32:24;101139;;;1.60;92.26
62632;BME280;48703;51.248;-0.546;2023-04-25T05:35:26;101138;;;1.63;92.55
62632;BME280;48703;51.248;-0.546;2023-04-25T05:38:28;101136;;;1.64;92.80
62632;BME280;48703;51.248;-0.546;2023-04-25T05:41:30;101135;;;1.66;93.09
62632;BME280;48703;51.248;-0.546;2023-04-25T05:44:32;101136;;;1.65;92.48
62632;BME280;48703;51.248;-0.546;2023-04-25T05:47:34;101144;;;1.64;92.34
62632;BME280;48703;51.248;-0.546;2023-04-25T05:50:36;101153;;;1.69;92.54
62632;BME280;48703;51.248;-0.546;2023-04-25T05:53:38;101159;;;1.73;93.17
62632;BME280;48703;51.248;-0.546;2023-04-25T05:56:40;101167;;;1.77;93.38
62632;BME280;48703;51.248;-0.546;2023-04-25T05:59:42;101171;;;1.82;92.88
62632;BME280;48703;51.248;-0.546;2023-04-25T06:02:44;101162;;;1.83;92.50
62632;BME280;48703;51.248;-0.546;2023-04-25T06:05:46;101156;;;1.87;92.46
62632;BME280;48703;51.248;-0.546;2023-04-25T06:08:48;101154;;;1.91;92.31
62632;BME280;48703;51.248;-0.546;2023-04-25T06:11:50;101156;;;1.94;91.87
62632;BME280;48703;51.248;-0.546;2023-04-25T06:14:52;101156;;;1.96;91.54
62632;BME280;48703;51.248;-0.546;2023-04-25T06:17:54;101165;;;1.97;91.55
62632;BME280;48703;51.248;-0.546;2023-04-25T06:20:56;101174;;;2.01;91.55
62632;BME280;48703;51.248;-0.546;2023-04-25T06:23:58;101170;;;2.03;91.32
62632;BME280;48703;51.248;-0.546;2023-04-25T06:27:00;101175;;;2.07;91.49
62632;BME280;48703;51.248;-0.546;2023-04-25T06:30:02;101178;;;2.10;91.19
62632;BME280;48703;51.248;-0.546;2023-04-25T06:33:04;101179;;;2.14;91.08
62632;BME280;48703;51.248;-0.546;2023-04-25T06:36:06;101187;;;2.17;91.14
62632;BME280;48703;51.248;-0.546;2023-04-25T06:39:08;101188;;;2.24;91.63
62632;BME280;48703;51.248;-0.546;2023-04-25T06:42:10;101186;;;2.28;91.79
62632;BME280;48703;51.248;-0.546;2023-04-25T06:45:12;101179;;;2.32;91.58
62632;BME280;48703;51.248;-0.546;2023-04-25T06:48:14;101174;;;2.36;91.11
62632;BME280;48703;51.248;-0.546;2023-04-25T06:51:16;101171;;;2.40;91.08
62632;BME280;48703;51.248;-0.546;2023-04-25T06:54:18;101169;;;2.46;91.91
62632;BME280;48703;51.248;-0.546;2023-04-25T06:57:20;101176;;;2.52;91.12
62632;BME280;48703;51.248;-0.546;2023-04-25T07:00:22;101184;;;2.56;90.09
62632;BME280;48703;51.248;-0.546;2023-04-25T07:03:24;101191;;;2.61;89.33
62632;BME280;48703;51.248;-0.546;2023-04-25T07:06:26;101194;;;2.66;89.14
62632;BME280;48703;51.248;-0.546;2023-04-25T07:09:28;101197;;;2.72;90.00
62632;BME280;48703;51.248;-0.546;2023-04-25T07:12:30;101200;;;2.76;89.49
62632;BME280;48703;51.248;-0.546;2023-04-25T07:15:32;101207;;;2.88;91.59
62632;BME280;48703;51.248;-0.546;2023-04-25T07:18:34;101211;;;2.90;89.15
62632;BME280;48703;51.248;-0.546;2023-04-25T07:21:36;101212;;;2.95;89.24
62632;BME280;48703;51.248;-0.546;2023-04-25T07:24:38;101217;;;3.04;90.12
62632;BME280;48703;51.248;-0.546;2023-04-25T07:27:40;101221;;;3.06;88.47
62632;BME280;48703;51.248;-0.546;2023-04-25T07:30:42;101215;;;3.11;87.73
62632;BME280;48703;51.248;-0.546;2023-04-25T07:33:44;101213;;;3.18;87.95
62632;BME280;48703;51.248;-0.546;2023-04-25T07:36:46;101213;;;3.24;89.26
62632;BME280;48703;51.248;-0.546;2023-04-25T07:39:48;101220;;;3.32;90.05
62632;BME280;48703;51.248;-0.546;2023-04-25T07:42:50;101221;;;3.41;90.36
62632;BME280;48703;51.248;-0.546;2023-04-25T07:45:52;101221;;;3.46;88.68
62632;BME280;48703;51.248;-0.546;2023-04-25T07:48:54;101218;;;3.51;87.22
62632;BME280;48703;51.248;-0.546;2023-04-25T07:51:57;101222;;;3.59;88.12
62632;BME280;48703;51.248;-0.546;2023-04-25T07:54:59;101222;;;3.66;86.93
62632;BME280;48703;51.248;-0.546;2023-04-25T07:58:01;101230;;;3.73;86.89
62632;BME280;48703;51.248;-0.546;2023-04-25T08:01:03;101236;;;3.82;88.88
62632;BME280;48703;51.248;-0.546;2023-04-25T08:04:05;101238;;;3.90;89.04
62632;BME280;48703;51.248;-0.546;2023-04-25T08:07:07;101239;;;3.97;85.94
62632;BME280;48703;51.248;-0.546;2023-04-25T08:10:09;101242;;;4.09;84.76
62632;BME280;48703;51.248;-0.546;2023-04-25T08:13:11;101247;;;4.14;83.71
62632;BME280;48703;51.248;-0.546;2023-04-25T08:16:13;101250;;;4.20;85.07
62632;BME280;48703;51.248;-0.546;2023-04-25T08:19:15;101257;;;4.25;84.04
62632;BME280;48703;51.248;-0.546;2023-04-25T08:22:17;101258;;;4.33;85.38
62632;BME280;48703;51.248;-0.546;2023-04-25T08:25:19;101255;;;4.41;84.86
62632;BME280;48703;51.248;-0.546;2023-04-25T08:28:21;101254;;;4.50;85.61
62632;BME280;48703;51.248;-0.546;2023-04-25T08:31:23;101241;;;4.65;85.40
62632;BME280;48703;51.248;-0.546;2023-04-25T08:34:25;101236;;;4.74;85.02
62632;BME280;48703;51.248;-0.546;2023-04-25T08:37:27;101235;;;4.87;85.58
62632;BME280;48703;51.248;-0.546;2023-04-25T08:40:29;101236;;;4.91;81.11
62632;BME280;48703;51.248;-0.546;2023-04-25T08:43:31;101245;;;4.95;79.27
62632;BME280;48703;51.248;-0.546;2023-04-25T08:46:33;101249;;;4.99;78.48
62632;BME280;48703;51.248;-0.546;2023-04-25T08:49:35;101248;;;5.00;75.43
62632;BME280;48703;51.248;-0.546;2023-04-25T08:52:39;101244;;;5.05;77.91
62632;BME280;48703;51.248;-0.546;2023-04-25T08:55:39;101242;;;5.10;77.23
62632;BME280;48703;51.248;-0.546;2023-04-25T08:58:41;101249;;;5.17;76.29
62632;BME280;48703;51.248;-0.546;2023-04-25T09:01:43;101249;;;5.21;77.87
62632;BME280;48703;51.248;-0.546;2023-04-25T09:04:45;101247;;;5.26;74.60
62632;BME280;48703;51.248;-0.546;2023-04-25T09:07:47;101243;;;5.31;75.23
62632;BME280;48703;51.248;-0.546;2023-04-25T09:10:49;101243;;;5.37;75.64
62632;BME280;48703;51.248;-0.546;2023-04-25T09:13:51;101251;;;5.46;77.69
62632;BME280;48703;51.248;-0.546;2023-04-25T09:16:57;101247;;;5.55;73.88
62632;BME280;48703;51.248;-0.546;2023-04-25T09:19:55;101246;;;5.65;77.53
62632;BME280;48703;51.248;-0.546;2023-04-25T09:23:01;101245;;;5.74;75.42
62632;BME280;48703;51.248;-0.546;2023-04-25T09:25:59;101243;;;5.87;74.76
62632;BME280;48703;51.248;-0.546;2023-04-25T09:29:04;101248;;;6.00;75.29
62632;BME280;48703;51.248;-0.546;2023-04-25T09:32:11;101246;;;6.07;71.60
62632;BME280;48703;51.248;-0.546;2023-04-25T09:35:05;101248;;;6.15;71.75
62632;BME280;48703;51.248;-0.546;2023-04-25T09:38:08;101248;;;6.22;73.03
62632;BME280;48703;51.248;-0.546;2023-04-25T09:41:10;101250;;;6.34;73.54
62632;BME280;48703;51.248;-0.546;2023-04-25T09:44:12;101248;;;6.43;71.49
62632;BME280;48703;51.248;-0.546;2023-04-25T09:47:14;101256;;;6.54;72.19
62632;BME280;48703;51.248;-0.546;2023-04-25T09:50:16;101257;;;6.64;70.73
62632;BME280;48703;51.248;-0.546;2023-04-25T09:53:17;101257;;;6.74;72.05
62632;BME280;48703;51.248;-0.546;2023-04-25T09:56:19;101253;;;6.89;69.62
62632;BME280;48703;51.248;-0.546;2023-04-25T09:59:22;101252;;;6.97;66.45
62632;BME280;48703;51.248;-0.546;2023-04-25T10:02:24;101253;;;7.02;65.13
62632;BME280;48703;51.248;-0.546;2023-04-25T10:05:25;101254;;;7.01;62.04
62632;BME280;48703;51.248;-0.546;2023-04-25T10:08:29;101259;;;7.07;60.78
62632;BME280;48703;51.248;-0.546;2023-04-25T10:11:29;101255;;;7.08;60.15
62632;BME280;48703;51.248;-0.546;2023-04-25T10:14:32;101253;;;7.06;62.98
62632;BME280;48703;51.248;-0.546;2023-04-25T10:17:33;101249;;;7.07;64.45
62632;BME280;48703;51.248;-0.546;2023-04-25T10:20:35;101249;;;7.10;61.94
62632;BME280;48703;51.248;-0.546;2023-04-25T10:23:38;101252;;;7.09;65.74
62632;BME280;48703;51.248;-0.546;2023-04-25T10:26:40;101252;;;7.05;66.53
62632;BME280;48703;51.248;-0.546;2023-04-25T10:29:42;101249;;;7.02;66.17
62632;BME280;48703;51.248;-0.546;2023-04-25T10:32:44;101246;;;7.09;64.78
62632;BME280;48703;51.248;-0.546;2023-04-25T10:35:46;101236;;;7.19;64.97
62632;BME280;48703;51.248;-0.546;2023-04-25T10:38:48;101233;;;7.29;61.22
62632;BME280;48703;51.248;-0.546;2023-04-25T10:41:53;101240;;;7.39;62.61
62632;BME280;48703;51.248;-0.546;2023-04-25T10:45:00;101243;;;7.49;63.55
62632;BME280;48703;51.248;-0.546;2023-04-25T10:47:54;101243;;;7.55;62.10
62632;BME280;48703;51.248;-0.546;2023-04-25T10:51:06;101245;;;7.67;61.15
62632;BME280;48703;51.248;-0.546;2023-04-25T10:53:59;101242;;;7.77;60.69
62632;BME280;48703;51.248;-0.546;2023-04-25T10:57:00;101244;;;7.90;63.16
62632;BME280;48703;51.248;-0.546;2023-04-25T11:00:05;101242;;;7.95;60.73
62632;BME280;48703;51.248;-0.546;2023-04-25T11:03:04;101241;;;8.05;62.71
62632;BME280;48703;51.248;-0.546;2023-04-25T11:06:06;101245;;;8.13;61.20
62632;BME280;48703;51.248;-0.546;2023-04-25T11:09:09;101244;;;8.09;56.60
62632;BME280;48703;51.248;-0.546;2023-04-25T11:12:10;101242;;;8.00;59.86
62632;BME280;48703;51.248;-0.546;2023-04-25T11:15:12;101243;;;7.91;61.35
62632;BME280;48703;51.248;-0.546;2023-04-25T11:18:15;101240;;;7.89;61.02
62632;BME280;48703;51.248;-0.546;2023-04-25T11:21:16;101240;;;7.96;62.08
62632;BME280;48703;51.248;-0.546;2023-04-25T11:24:18;101234;;;8.04;57.01
62632;BME280;48703;51.248;-0.546;2023-04-25T11:27:20;101236;;;8.15;59.66
62632;BME280;48703;51.248;-0.546;2023-04-25T11:30:22;101235;;;8.31;58.20
62632;BME280;48703;51.248;-0.546;2023-04-25T11:33:24;101233;;;8.51;60.34
62632;BME280;48703;51.248;-0.546;2023-04-25T11:36:26;101237;;;8.61;60.10
62632;BME280;48703;51.248;-0.546;2023-04-25T11:39:28;101248;;;8.54;58.47
62632;BME280;48703;51.248;-0.546;2023-04-25T11:42:30;101254;;;8.49;59.90
62632;BME280;48703;51.248;-0.546;2023-04-25T11:45:32;101255;;;8.46;59.33
62632;BME280;48703;51.248;-0.546;2023-04-25T11:48:36;101247;;;8.51;59.24
62632;BME280;48703;51.248;-0.546;2023-04-25T11:51:38;101243;;;8.57;57.84
62632;BME280;48703;51.248;-0.546;2023-04-25T11:54:38;101244;;;8.62;56.97
62632;BME280;48703;51.248;-0.546;2023-04-25T11:57:40;101245;;;8.59;55.06
62632;BME280;48703;51.248;-0.546;2023-04-25T12:00:42;101248;;;8.63;55.79
62632;BME280;48703;51.248;-0.546;2023-04-25T12:03:45;101250;;;8.61;56.69
62632;BME280;48703;51.248;-0.546;2023-04-25T12:06:47;101246;;;8.61;54.62
62632;BME280;48703;51.248;-0.546;2023-04-25T12:09:51;101249;;;8.63;54.13
62632;BME280;48703;51.248;-0.546;2023-04-25T12:12:50;101250;;;8.77;58.04
62632;BME280;48703;51.248;-0.546;2023-04-25T12:15:53;101251;;;8.76;52.54
62632;BME280;48703;51.248;-0.546;2023-04-25T12:18:55;101258;;;8.73;54.86
62632;BME280;48703;51.248;-0.546;2023-04-25T12:21:56;101260;;;8.73;55.29
62632;BME280;48703;51.248;-0.546;2023-04-25T12:24:58;101256;;;8.82;55.27
62632;BME280;48703;51.248;-0.546;2023-04-25T12:28:09;101257;;;8.94;55.54
62632;BME280;48703;51.248;-0.546;2023-04-25T12:31:03;101253;;;9.08;55.28
62632;BME280;48703;51.248;-0.546;2023-04-25T12:34:04;101251;;;9.18;53.33
62632;BME280;48703;51.248;-0.546;2023-04-25T12:37:06;101255;;;9.35;55.63
62632;BME280;48703;51.248;-0.546;2023-04-25T12:40:09;101254;;;9.45;53.62
62632;BME280;48703;51.248;-0.546;2023-04-25T12:43:10;101250;;;9.55;52.08
62632;BME280;48703;51.248;-0.546;2023-04-25T12:46:12;101253;;;9.70;54.18
62632;BME280;48703;51.248;-0.546;2023-04-25T12:49:14;101259;;;9.79;52.96
62632;BME280;48703;51.248;-0.546;2023-04-25T12:52:16;101263;;;9.83;53.41
62632;BME280;48703;51.248;-0.546;2023-04-25T12:55:18;101264;;;9.84;54.55
62632;BME280;48703;51.248;-0.546;2023-04-25T12:58:20;101263;;;9.89;52.92
62632;BME280;48703;51.248;-0.546;2023-04-25T13:01:22;101261;;;9.90;53.53
62632;BME280;48703;51.248;-0.546;2023-04-25T13:04:24;101265;;;9.92;52.94
62632;BME280;48703;51.248;-0.546;2023-04-25T13:07:26;101272;;;9.86;50.20
62632;BME280;48703;51.248;-0.546;2023-04-25T13:10:29;101269;;;9.85;48.04
62632;BME280;48703;51.248;-0.546;2023-04-25T13:13:31;101274;;;9.76;49.13
62632;BME280;48703;51.248;-0.546;2023-04-25T13:16:33;101275;;;9.79;50.60
62632;BME280;48703;51.248;-0.546;2023-04-25T13:19:35;101273;;;9.91;49.31
62632;BME280;48703;51.248;-0.546;2023-04-25T13:22:37;101274;;;10.00;46.55
62632;BME280;48703;51.248;-0.546;2023-04-25T13:25:39;101274;;;10.09;50.99
62632;BME280;48703;51.248;-0.546;2023-04-25T13:28:41;101276;;;10.20;51.72
62632;BME280;48703;51.248;-0.546;2023-04-25T13:31:43;101275;;;10.22;50.36
62632;BME280;48703;51.248;-0.546;2023-04-25T13:34:45;101272;;;10.28;48.88
62632;BME280;48703;51.248;-0.546;2023-04-25T13:37:47;101270;;;10.28;47.17
62632;BME280;48703;51.248;-0.546;2023-04-25T13:40:49;101270;;;10.43;48.33
62632;BME280;48703;51.248;-0.546;2023-04-25T13:43:51;101270;;;10.60;48.90
62632;BME280;48703;51.248;-0.546;2023-04-25T13:46:53;101272;;;10.68;49.26
62632;BME280;48703;51.248;-0.546;2023-04-25T13:49:55;101270;;;10.64;47.71
62632;BME280;48703;51.248;-0.546;2023-04-25T13:52:57;101266;;;10.63;51.03
62632;BME280;48703;51.248;-0.546;2023-04-25T13:55:59;101267;;;10.58;50.80
62632;BME280;48703;51.248;-0.546;2023-04-25T13:59:01;101267;;;10.59;49.78
62632;BME280;48703;51.248;-0.546;2023-04-25T14:02:03;101266;;;10.52;48.23
62632;BME280;48703;51.248;-0.546;2023-04-25T14:05:05;101265;;;10.51;48.71
62632;BME280;48703;51.248;-0.546;2023-04-25T14:08:07;101263;;;10.48;48.95
62632;BME280;48703;51.248;-0.546;2023-04-25T14:11:09;101264;;;10.47;49.81
62632;BME280;48703;51.248;-0.546;2023-04-25T14:14:11;101264;;;10.47;47.86
62632;BME280;48703;51.248;-0.546;2023-04-25T14:17:13;101262;;;10.43;46.87
62632;BME280;48703;51.248;-0.546;2023-04-25T14:20:15;101260;;;10.35;47.53
62632;BME280;48703;51.248;-0.546;2023-04-25T14:23:17;101263;;;10.36;51.18
62632;BME280;48703;51.248;-0.546;2023-04-25T14:26:19;101264;;;10.36;50.49
62632;BME280;48703;51.248;-0.546;2023-04-25T14:29:21;101264;;;10.30;49.81
62632;BME280;48703;51.248;-0.546;2023-04-25T14:32:23;101261;;;10.31;46.91
62632;BME280;48703;51.248;-0.546;2023-04-25T14:35:25;101260;;;10.28;50.23
62632;BME280;48703;51.248;-0.546;2023-04-25T14:38:27;101257;;;10.35;51.66
62632;BME280;48703;51.248;-0.546;2023-04-25T14:41:29;101255;;;10.37;50.04
62632;BME280;48703;51.248;-0.546;2023-04-25T14:44:31;101255;;;10.37;49.72
62632;BME280;48703;51.248;-0.546;2023-04-25T14:47:33;101254;;;10.35;49.99
62632;BME280;48703;51.248;-0.546;2023-04-25T14:50:35;101253;;;10.37;49.81
62632;BME280;48703;51.248;-0.546;2023-04-25T14:53:37;101252;;;10.35;50.30
62632;BME280;48703;51.248;-0.546;2023-04-25T14:56:39;101251;;;10.36;49.05
62632;BME280;48703;51.248;-0.546;2023-04-25T14:59:41;101250;;;10.36;48.22
62632;BME280;48703;51.248;-0.546;2023-04-25T15:02:43;101248;;;10.39;51.80
62632;BME280;48703;51.248;-0.546;2023-04-25T15:05:45;101248;;;10.44;49.46
62632;BME280;48703;51.248;-0.546;2023-04-25T15:08:47;101245;;;10.51;50.06
62632;BME280;48703;51.248;-0.546;2023-04-25T15:11:49;101245;;;10.69;50.29
62632;BME280;48703;51.248;-0.546;2023-04-25T15:14:51;101241;;;11.01;48.84
62632;BME280;48703;51.248;-0.546;2023-04-25T15:17:53;101240;;;11.22;47.90
62632;BME280;48703;51.248;-0.546;2023-04-25T15:20:55;101241;;;11.48;46.71
62632;BME280;48703;51.248;-0.546;2023-04-25T15:23:57;101241;;;11.60;47.08
62632;BME280;48703;51.248;-0.546;2023-04-25T15:26:59;101242;;;11.56;46.55
62632;BME280;48703;51.248;-0.546;2023-04-25T15:30:01;101236;;;11.42;44.36
62632;BME280;48703;51.248;-0.546;2023-04-25T15:33:03;101232;;;11.29;45.57
62632;BME280;48703;51.248;-0.546;2023-04-25T15:36:05;101232;;;11.29;47.61
62632;BME280;48703;51.248;-0.546;2023-04-25T15:39:07;101237;;;11.24;46.74
62632;BME280;48703;51.248;-0.546;2023-04-25T15:42:09;101238;;;11.13;45.17
62632;BME280;48703;51.248;-0.546;2023-04-25T15:45:12;101236;;;11.03;45.73
62632;BME280;48703;51.248;-0.546;2023-04-25T15:48:13;101239;;;10.99;46.24
62632;BME280;48703;51.248;-0.546;2023-04-25T15:51:15;101236;;;10.98;47.64
62632;BME280;48703;51.248;-0.546;2023-04-25T15:54:17;101234;;;10.99;46.64
62632;BME280;48703;51.248;-0.546;2023-04-25T15:57:20;101234;;;11.00;47.58
62632;BME280;48703;51.248;-0.546;2023-04-25T16:00:22;101232;;;11.19;46.79
62632;BME280;48703;51.248;-0.546;2023-04-25T16:03:24;101233;;;11.39;45.56
62632;BME280;48703;51.248;-0.546;2023-04-25T16:06:26;101230;;;11.34;45.10
62632;BME280;48703;51.248;-0.546;2023-04-25T16:09:28;101229;;;11.26;46.46
62632;BME280;48703;51.248;-0.546;2023-04-25T16:12:30;101228;;;11.20;45.00
62632;BME280;48703;51.248;-0.546;2023-04-25T16:15:32;101232;;;11.38;46.90
62632;BME280;48703;51.248;-0.546;2023-04-25T16:18:34;101231;;;11.60;46.50
62632;BME280;48703;51.248;-0.546;2023-04-25T16:21:36;101227;;;11.77;46.35
62632;BME280;48703;51.248;-0.546;2023-04-25T16:24:38;101227;;;11.84;43.78
62632;BME280;48703;51.248;-0.546;2023-04-25T16:27:40;101227;;;12.00;44.32